Time;durP1;ratioP1;P1;durP2;ratioP2;P2;SDS_P1;SDS_P2;PMS_P1;PMS_P2;Temp;Humidity;BMP_temperature;BMP_pressure;BME280_temperature;BME280_humidity;BME280_pressure;Samples;Min_cycle;Max_cycle;Signal;HPM_P1;HPM_P2
2022/11/20 00:01:25;;;;;;;;;;;;;;;;;;7382224;19;799;-68
2022/11/20 00:03:53;;;;;;;;;;;;;;;;;;7385864;19;1341;-68
2022/11/20 00:06:21;;;;;;;;;;;;;;;;;;7376360;19;768;-68
2022/11/20 00:08:50;;;;;;;;;;;;;;;;;;7375600;19;2009;-68
2022/11/20 00:11:18;;;;;;;;;;;;;;;;;;7373322;19;874;-68
2022/11/20 00:13:46;;;;;;;;;;;;;;;;;;7368095;19;1278;-68
2022/11/20 00:16:14;;;;;;;;;;;;;;;;;;7371080;19;819;-68
2022/11/20 00:18:43;;;;;;;;;;;;;;;;;;7371505;19;799;-68
2022/11/20 00:21:11;;;;;;;;;;;;;;;;;;7371936;19;842;-68
2022/11/20 00:23:39;;;;;;;;;;;;;;;;;;7368982;19;1298;-68
2022/11/20 00:26:08;;;;;;;;;;;;;;;;;;7369910;19;912;-68
2022/11/20 00:28:36;;;;;;;;;;;;;;;;;;7369197;19;2037;-68
2022/11/20 00:31:04;;;;;;;;;;;;;;;;;;7369631;19;794;-68
2022/11/20 00:33:32;;;;;;;;;;;;;;;;;;7368129;19;1334;-68
2022/11/20 00:36:01;;;;;;;;;;;;;;;;;;7369497;19;860;-68
2022/11/20 00:38:29;;;;;;;;;;;;;;;;;;7367511;19;871;-68
2022/11/20 00:40:57;;;;;;;;;;;;;;;;;;7370155;19;877;-68
2022/11/20 00:43:25;;;;;;;;;;;;;;;;;;7367796;19;1240;-68
2022/11/20 00:45:53;;;;;;;;;;;;;;;;;;7371101;19;1400;-68
2022/11/20 00:48:21;;;;;;;;;;;;;;;;;;7368953;19;1837;-68
2022/11/20 00:50:49;;;;;;;;;;;;;;;;;;7368789;19;852;-67
2022/11/20 00:53:18;;;;;;;;;;;;;;;;;;7367443;19;1335;-68
2022/11/20 00:55:46;;;;;;;;;;;;;;;;;;7373002;19;1806;-68
2022/11/20 00:58:14;;;;;;;;;;;;;;;;;;7371306;19;2010;-68
2022/11/20 01:00:42;;;;;;;;;;;;;;;;;;7368108;19;859;-68
2022/11/20 01:03:10;;;;;;;;;;;;;;;;;;7370811;19;1663;-68
2022/11/20 01:05:38;;;;;;;;;;;;;;;;;;7367984;19;791;-68
2022/11/20 01:08:07;;;;;;;;;;;;;;;;;;7367854;19;856;-68
2022/11/20 01:10:35;;;;;;;;;;;;;;;;;;7366091;19;1849;-67
2022/11/20 01:15:43;;;;;;;;;;;;;;;;;;7367491;19;1144;-68
2022/11/20 01:18:11;;;;;;;;;;;;;;;;;;7368307;19;852;-68
2022/11/20 01:20:39;;;;;;;;;;;;;;;;;;7368732;19;816;-67
2022/11/20 01:23:08;;;;;;;;;;;;;;;;;;7366984;19;1286;-67
2022/11/20 01:25:36;;;;;;;;;;;;;;;;;;7369093;19;1819;-67
2022/11/20 01:28:04;;;;;;;;;;;;;;;;;;7366892;19;790;-68
2022/11/20 01:30:32;;;;;;;;;;;;;;;;;;7365144;19;1851;-69
2022/11/20 01:33:00;;;;;;;;;;;;;;;;;;7366387;19;1329;-68
2022/11/20 01:35:28;;;;;;;;;;;;;;;;;;7368175;19;811;-68
2022/11/20 01:37:57;;;;;;;;;;;;;;;;;;7367331;19;846;-69
2022/11/20 01:40:25;;;;;;;;;;;;;;;;;;7371046;19;1889;-69
2022/11/20 01:45:34;;;;;;;;;;;;;;;;;;7367180;19;832;-68
2022/11/20 01:48:02;;;;;;;;;;;;;;;;;;7366840;19;783;-69
2022/11/20 01:50:30;;;;;;;;;;;;;;;;;;7364713;19;1849;-68
2022/11/20 01:52:58;;;;;;;;;;;;;;;;;;7365909;19;2036;-69
2022/11/20 01:55:27;;;;;;;;;;;;;;;;;;7366948;19;797;-69
2022/11/20 01:57:55;;;;;;;;;;;;;;;;;;7366867;19;847;-69
2022/11/20 02:00:23;;;;;;;;;;;;;;;;;;7365561;19;791;-68
2022/11/20 02:02:51;;;;;;;;;;;;;;;;;;7364376;19;1358;-68
2022/11/20 02:05:19;;;;;;;;;;;;;;;;;;7366873;19;811;-68
2022/11/20 02:07:47;;;;;;;;;;;;;;;;;;7366511;19;873;-69
2022/11/20 02:10:16;;;;;;;;;;;;;;;;;;7364261;19;1853;-68
2022/11/20 02:15:24;;;;;;;;;;;;;;;;;;7366384;19;804;-68
2022/11/20 02:17:52;;;;;;;;;;;;;;;;;;7365901;19;741;-68
2022/11/20 02:20:21;;;;;;;;;;;;;;;;;;7365674;19;819;-66
2022/11/20 02:22:49;;;;;;;;;;;;;;;;;;7369305;19;1659;-67
2022/11/20 02:25:17;;;;;;;;;;;;;;;;;;7366276;19;2013;-68
2022/11/20 02:27:45;;;;;;;;;;;;;;;;;;7365816;19;847;-67
2022/11/20 02:30:13;;;;;;;;;;;;;;;;;;7363636;19;1853;-67
2022/11/20 02:32:41;;;;;;;;;;;;;;;;;;7365438;19;1255;-67
2022/11/20 02:35:10;;;;;;;;;;;;;;;;;;7365264;19;792;-67
2022/11/20 02:37:38;;;;;;;;;;;;;;;;;;7371217;19;809;-68
2022/11/20 02:40:06;;;;;;;;;;;;;;;;;;7372349;19;876;-67
2022/11/20 02:42:34;;;;;;;;;;;;;;;;;;7371420;19;1313;-67
2022/11/20 02:45:02;;;;;;;;;;;;;;;;;;7371816;19;807;-67
2022/11/20 02:47:30;;;;;;;;;;;;;;;;;;7371878;19;888;-67
2022/11/20 02:49:59;;;;;;;;;;;;;;;;;;7372750;19;1807;-67
2022/11/20 02:52:27;;;;;;;;;;;;;;;;;;7371281;19;1318;-67
2022/11/20 02:54:55;;;;;;;;;;;;;;;;;;7371944;19;891;-67
2022/11/20 02:57:23;;;;;;;;;;;;;;;;;;7371630;19;869;-67
2022/11/20 02:59:51;;;;;;;;;;;;;;;;;;7368084;19;831;-67
2022/11/20 03:02:20;;;;;;;;;;;;;;;;;;7372382;19;1985;-67
2022/11/20 03:04:48;;;;;;;;;;;;;;;;;;7371750;19;799;-67
2022/11/20 03:07:16;;;;;;;;;;;;;;;;;;7372169;19;896;-67
2022/11/20 03:09:44;;;;;;;;;;;;;;;;;;7371136;19;1830;-67
2022/11/20 03:12:13;;;;;;;;;;;;;;;;;;7370874;19;1328;-67
2022/11/20 03:14:42;;;;;;;;;;;;;;;;;;7371149;19;2043;-67
2022/11/20 03:17:13;;;;;;;;;;;;;;;;;;7368911;19;1107;-67
2022/11/20 03:19:41;;;;;;;;;;;;;;;;;;7370747;19;763;-67
2022/11/20 03:22:09;;;;;;;;;;;;;;;;;;7370018;19;1279;-67
2022/11/20 03:24:37;;;;;;;;;;;;;;;;;;7371418;19;792;-67
2022/11/20 03:27:05;;;;;;;;;;;;;;;;;;7370824;19;827;-67
2022/11/20 03:29:33;;;;;;;;;;;;;;;;;;7368030;19;1854;-67
2022/11/20 03:32:01;;;;;;;;;;;;;;;;;;7369008;19;1279;-67
2022/11/20 03:34:30;;;;;;;;;;;;;;;;;;7371206;19;827;-67
2022/11/20 03:36:58;;;;;;;;;;;;;;;;;;7370632;19;803;-67
2022/11/20 03:39:26;;;;;;;;;;;;;;;;;;7370344;19;858;-67
2022/11/20 03:41:54;;;;;;;;;;;;;;;;;;7370093;19;1314;-67
2022/11/20 03:44:22;;;;;;;;;;;;;;;;;;7374583;19;2045;-67
2022/11/20 03:46:51;;;;;;;;;;;;;;;;;;7370986;19;858;-67
2022/11/20 03:49:19;;;;;;;;;;;;;;;;;;7370043;19;1845;-67
2022/11/20 03:51:47;;;;;;;;;;;;;;;;;;7370730;19;1343;-67
2022/11/20 03:54:15;;;;;;;;;;;;;;;;;;7371043;19;809;-67
2022/11/20 03:56:43;;;;;;;;;;;;;;;;;;7373463;19;887;-67
2022/11/20 03:59:11;;;;;;;;;;;;;;;;;;7370994;19;772;-67
2022/11/20 04:01:39;;;;;;;;;;;;;;;;;;7372013;19;799;-67
2022/11/20 04:04:08;;;;;;;;;;;;;;;;;;7370123;19;1299;-67
2022/11/20 04:06:36;;;;;;;;;;;;;;;;;;7372237;19;904;-67
2022/11/20 04:09:04;;;;;;;;;;;;;;;;;;7369584;19;898;-67
2022/11/20 04:11:33;;;;;;;;;;;;;;;;;;7369285;19;1882;-67
2022/11/20 04:14:01;;;;;;;;;;;;;;;;;;7371218;19;1588;-67
2022/11/20 04:16:29;;;;;;;;;;;;;;;;;;7371011;19;815;-67
2022/11/20 04:18:57;;;;;;;;;;;;;;;;;;7369639;19;866;-68
2022/11/20 04:21:25;;;;;;;;;;;;;;;;;;7369603;19;875;-67
2022/11/20 04:23:53;;;;;;;;;;;;;;;;;;7368115;19;1270;-67
2022/11/20 04:26:21;;;;;;;;;;;;;;;;;;7368816;19;872;-67
2022/11/20 04:28:50;;;;;;;;;;;;;;;;;;7370698;19;1846;-67
2022/11/20 04:31:18;;;;;;;;;;;;;;;;;;7367229;19;1875;-67
2022/11/20 04:33:46;;;;;;;;;;;;;;;;;;7367266;19;1216;-67
2022/11/20 04:36:14;;;;;;;;;;;;;;;;;;7368927;19;858;-67
2022/11/20 04:38:42;;;;;;;;;;;;;;;;;;7369137;19;2099;-67
2022/11/20 04:41:10;;;;;;;;;;;;;;;;;;7368932;19;936;-67
2022/11/20 04:43:38;;;;;;;;;;;;;;;;;;7367284;19;1257;-67
2022/11/20 04:46:07;;;;;;;;;;;;;;;;;;7370722;19;1832;-67
2022/11/20 04:48:35;;;;;;;;;;;;;;;;;;7368343;19;859;-67
2022/11/20 04:51:03;;;;;;;;;;;;;;;;;;7367682;19;1850;-67
2022/11/20 04:53:31;;;;;;;;;;;;;;;;;;7371317;19;2050;-67
2022/11/20 04:55:59;;;;;;;;;;;;;;;;;;7369062;19;812;-67
2022/11/20 04:58:27;;;;;;;;;;;;;;;;;;7365038;19;841;-67
2022/11/20 05:00:55;;;;;;;;;;;;;;;;;;7368533;19;885;-66
2022/11/20 05:03:23;;;;;;;;;;;;;;;;;;7368550;19;1863;-67
2022/11/20 05:05:52;;;;;;;;;;;;;;;;;;7368641;19;790;-67
2022/11/20 05:08:20;;;;;;;;;;;;;;;;;;7368477;19;808;-67
2022/11/20 05:10:48;;;;;;;;;;;;;;;;;;7367015;19;1841;-67
2022/11/20 05:13:16;;;;;;;;;;;;;;;;;;7366946;19;1275;-67
2022/11/20 05:15:44;;;;;;;;;;;;;;;;;;7367833;19;827;-67
2022/11/20 05:18:13;;;;;;;;;;;;;;;;;;7368222;19;799;-67
2022/11/20 05:20:41;;;;;;;;;;;;;;;;;;7369509;19;1822;-67
2022/11/20 05:23:09;;;;;;;;;;;;;;;;;;7366967;19;1314;-67
2022/11/20 05:25:37;;;;;;;;;;;;;;;;;;7367873;19;811;-67
2022/11/20 05:28:05;;;;;;;;;;;;;;;;;;7367328;19;971;-67
2022/11/20 05:30:33;;;;;;;;;;;;;;;;;;7367312;19;1842;-67
2022/11/20 05:33:01;;;;;;;;;;;;;;;;;;7366517;19;1271;-67
2022/11/20 05:35:30;;;;;;;;;;;;;;;;;;7368053;19;776;-68
2022/11/20 05:37:58;;;;;;;;;;;;;;;;;;7368143;19;1836;-68
2022/11/20 05:40:26;;;;;;;;;;;;;;;;;;7367749;19;1775;-68
2022/11/20 05:42:54;;;;;;;;;;;;;;;;;;7365660;19;1354;-67
2022/11/20 05:45:22;;;;;;;;;;;;;;;;;;7368178;19;842;-67
2022/11/20 05:47:50;;;;;;;;;;;;;;;;;;7366397;19;837;-67
2022/11/20 05:50:18;;;;;;;;;;;;;;;;;;7366451;19;1858;-67
2022/11/20 05:52:46;;;;;;;;;;;;;;;;;;7365968;19;1337;-67
2022/11/20 05:55:15;;;;;;;;;;;;;;;;;;7366418;19;2017;-67
2022/11/20 05:57:43;;;;;;;;;;;;;;;;;;7364544;19;809;-67
2022/11/20 06:00:11;;;;;;;;;;;;;;;;;;7367005;19;800;-67
2022/11/20 06:02:39;;;;;;;;;;;;;;;;;;7364114;19;1350;-67
2022/11/20 06:05:07;;;;;;;;;;;;;;;;;;7366749;19;839;-67
2022/11/20 06:07:35;;;;;;;;;;;;;;;;;;7366379;19;860;-68
2022/11/20 06:10:04;;;;;;;;;;;;;;;;;;7363291;19;1842;-67
2022/11/20 06:12:32;;;;;;;;;;;;;;;;;;7365260;19;2069;-67
2022/11/20 06:15:00;;;;;;;;;;;;;;;;;;7366302;19;878;-68
2022/11/20 06:17:28;;;;;;;;;;;;;;;;;;7366145;19;866;-67
2022/11/20 06:19:56;;;;;;;;;;;;;;;;;;7365784;19;840;-67
2022/11/20 06:22:25;;;;;;;;;;;;;;;;;;7365307;19;1335;-67
2022/11/20 06:24:53;;;;;;;;;;;;;;;;;;7369215;19;2016;-67
2022/11/20 06:27:21;;;;;;;;;;;;;;;;;;7365772;19;801;-67
2022/11/20 06:29:49;;;;;;;;;;;;;;;;;;7364571;19;830;-66
2022/11/20 06:32:17;;;;;;;;;;;;;;;;;;7365391;19;1850;-67
2022/11/20 06:34:45;;;;;;;;;;;;;;;;;;7369894;19;1853;-67
2022/11/20 06:37:13;;;;;;;;;;;;;;;;;;7364514;19;866;-66
2022/11/20 06:39:42;;;;;;;;;;;;;;;;;;7363529;19;811;-67
2022/11/20 06:42:10;;;;;;;;;;;;;;;;;;7366706;19;2119;-67
2022/11/20 06:44:38;;;;;;;;;;;;;;;;;;7365128;19;835;-65
2022/11/20 06:47:06;;;;;;;;;;;;;;;;;;7367190;19;862;-66
2022/11/20 06:49:36;;;;;;;;;;;;;;;;;;7372395;19;800;-66
2022/11/20 06:52:05;;;;;;;;;;;;;;;;;;7369560;19;1845;-66
2022/11/20 06:54:33;;;;;;;;;;;;;;;;;;7370192;19;749;-67
2022/11/20 06:57:01;;;;;;;;;;;;;;;;;;7374609;19;1794;-68
2022/11/20 06:59:29;;;;;;;;;;;;;;;;;;7369101;19;811;-68
2022/11/20 07:01:57;;;;;;;;;;;;;;;;;;7369764;19;1271;-68
2022/11/20 07:04:25;;;;;;;;;;;;;;;;;;7368437;19;809;-69
2022/11/20 07:06:54;;;;;;;;;;;;;;;;;;7368237;19;805;-69
2022/11/20 07:09:22;;;;;;;;;;;;;;;;;;7366864;19;803;-68
2022/11/20 07:11:50;;;;;;;;;;;;;;;;;;7363860;19;1870;-68
2022/11/20 07:14:18;;;;;;;;;;;;;;;;;;7366878;19;1868;-63
2022/11/20 07:16:46;;;;;;;;;;;;;;;;;;7370043;19;2168;-67
2022/11/20 07:19:14;;;;;;;;;;;;;;;;;;7365111;19;866;-66
2022/11/20 07:21:43;;;;;;;;;;;;;;;;;;7365467;19;815;-67
2022/11/20 07:24:11;;;;;;;;;;;;;;;;;;7368366;19;1380;-67
2022/11/20 07:26:39;;;;;;;;;;;;;;;;;;7369477;19;765;-67
2022/11/20 07:29:07;;;;;;;;;;;;;;;;;;7370175;19;893;-67
2022/11/20 07:31:35;;;;;;;;;;;;;;;;;;7369914;19;1833;-67
2022/11/20 07:34:03;;;;;;;;;;;;;;;;;;7369682;19;1779;-67
2022/11/20 07:36:31;;;;;;;;;;;;;;;;;;7371258;19;819;-66
2022/11/20 07:39:00;;;;;;;;;;;;;;;;;;7370659;19;812;-67
2022/11/20 07:41:28;;;;;;;;;;;;;;;;;;7368801;19;783;-66
2022/11/20 07:43:56;;;;;;;;;;;;;;;;;;7368771;19;1286;-66
2022/11/20 07:46:25;;;;;;;;;;;;;;;;;;7370033;19;811;-66
2022/11/20 07:48:53;;;;;;;;;;;;;;;;;;7369557;19;803;-66
2022/11/20 07:51:21;;;;;;;;;;;;;;;;;;7369399;19;1852;-66
2022/11/20 07:53:49;;;;;;;;;;;;;;;;;;7368631;19;1349;-66
2022/11/20 07:56:17;;;;;;;;;;;;;;;;;;7370312;19;851;-66
2022/11/20 07:58:45;;;;;;;;;;;;;;;;;;7369289;19;881;-67
2022/11/20 08:01:14;;;;;;;;;;;;;;;;;;7370381;19;714;-68
2022/11/20 08:03:42;;;;;;;;;;;;;;;;;;7368218;19;1255;-67
2022/11/20 08:06:10;;;;;;;;;;;;;;;;;;7370105;19;803;-68
2022/11/20 08:08:39;;;;;;;;;;;;;;;;;;7369460;19;810;-66
2022/11/20 08:16:28;;;;;;;;;;;;;;;;;;7370473;19;897;-68
2022/11/20 08:18:56;;;;;;;;;;;;;;;;;;7368444;19;886;-66
2022/11/20 08:21:25;;;;;;;;;;;;;;;;;;7369285;19;835;-66
2022/11/20 08:23:53;;;;;;;;;;;;;;;;;;7367966;19;1239;-66
2022/11/20 08:26:21;;;;;;;;;;;;;;;;;;7369089;19;807;-67
2022/11/20 08:28:49;;;;;;;;;;;;;;;;;;7367112;19;820;-66
2022/11/20 08:31:17;;;;;;;;;;;;;;;;;;7367468;19;1856;-66
2022/11/20 08:33:45;;;;;;;;;;;;;;;;;;7364093;19;1261;-66
2022/11/20 08:36:13;;;;;;;;;;;;;;;;;;7369462;19;802;-66
2022/11/20 08:38:42;;;;;;;;;;;;;;;;;;7366951;19;770;-68
2022/11/20 08:43:50;;;;;;;;;;;;;;;;;;7366349;19;1286;-66
2022/11/20 08:46:18;;;;;;;;;;;;;;;;;;7369068;19;780;-67
2022/11/20 08:48:47;;;;;;;;;;;;;;;;;;7368703;19;857;-65
2022/11/20 08:51:15;;;;;;;;;;;;;;;;;;7368757;19;1838;-67
2022/11/20 08:53:43;;;;;;;;;;;;;;;;;;7366547;19;1321;-67
2022/11/20 08:56:12;;;;;;;;;;;;;;;;;;7368915;19;867;-67
2022/11/20 08:58:40;;;;;;;;;;;;;;;;;;7367319;19;893;-67
2022/11/20 09:01:08;;;;;;;;;;;;;;;;;;7368942;19;812;-66
2022/11/20 09:03:36;;;;;;;;;;;;;;;;;;7366259;19;1333;-66
2022/11/20 09:06:04;;;;;;;;;;;;;;;;;;7368977;19;799;-67
2022/11/20 09:08:32;;;;;;;;;;;;;;;;;;7368360;19;754;-67
2022/11/20 09:11:01;;;;;;;;;;;;;;;;;;7368191;19;1833;-66
2022/11/20 09:13:29;;;;;;;;;;;;;;;;;;7366706;19;1325;-66
2022/11/20 09:15:57;;;;;;;;;;;;;;;;;;7368589;19;777;-67
2022/11/20 09:18:25;;;;;;;;;;;;;;;;;;7368157;19;839;-68
2022/11/20 09:20:53;;;;;;;;;;;;;;;;;;7368314;19;874;-68
2022/11/20 09:23:21;;;;;;;;;;;;;;;;;;7366007;19;1266;-66
2022/11/20 09:25:49;;;;;;;;;;;;;;;;;;7368194;19;865;-66
2022/11/20 09:28:18;;;;;;;;;;;;;;;;;;7367812;19;866;-68
2022/11/20 09:30:46;;;;;;;;;;;;;;;;;;7367910;19;866;-66
2022/11/20 09:33:14;;;;;;;;;;;;;;;;;;7364294;19;1849;-66
2022/11/20 09:35:43;;;;;;;;;;;;;;;;;;7367999;19;847;-66
2022/11/20 09:38:11;;;;;;;;;;;;;;;;;;7367547;19;1033;-67
2022/11/20 09:40:39;;;;;;;;;;;;;;;;;;7367546;19;804;-67
2022/11/20 09:43:07;;;;;;;;;;;;;;;;;;7365499;19;1856;-67
2022/11/20 09:45:35;;;;;;;;;;;;;;;;;;7367662;19;879;-66
2022/11/20 09:48:04;;;;;;;;;;;;;;;;;;7366350;19;815;-67
2022/11/20 09:50:32;;;;;;;;;;;;;;;;;;7367653;19;845;-67
2022/11/20 09:53:00;;;;;;;;;;;;;;;;;;7363471;19;1865;-68
2022/11/20 09:55:28;;;;;;;;;;;;;;;;;;7368013;19;811;-67
2022/11/20 09:57:56;;;;;;;;;;;;;;;;;;7368120;19;799;-67
2022/11/20 10:00:24;;;;;;;;;;;;;;;;;;7366479;19;811;-67
2022/11/20 10:02:53;;;;;;;;;;;;;;;;;;7365519;19;1341;-66
2022/11/20 10:05:21;;;;;;;;;;;;;;;;;;7365843;19;814;-67
2022/11/20 10:07:49;;;;;;;;;;;;;;;;;;7367469;19;855;-67
2022/11/20 10:10:17;;;;;;;;;;;;;;;;;;7365678;19;796;-67
2022/11/20 10:12:45;;;;;;;;;;;;;;;;;;7364446;19;1838;-67
2022/11/20 10:15:13;;;;;;;;;;;;;;;;;;7367110;19;890;-67
2022/11/20 10:17:42;;;;;;;;;;;;;;;;;;7366165;19;842;-67
2022/11/20 10:20:10;;;;;;;;;;;;;;;;;;7367341;19;854;-67
2022/11/20 10:22:38;;;;;;;;;;;;;;;;;;7366500;19;1212;-67
2022/11/20 10:25:06;;;;;;;;;;;;;;;;;;7367160;19;882;-67
2022/11/20 10:27:34;;;;;;;;;;;;;;;;;;7366712;19;854;-67
2022/11/20 10:30:03;;;;;;;;;;;;;;;;;;7366073;19;771;-67
2022/11/20 10:32:31;;;;;;;;;;;;;;;;;;7364529;19;1839;-67
2022/11/20 10:34:59;;;;;;;;;;;;;;;;;;7368116;19;829;-66
2022/11/20 10:37:27;;;;;;;;;;;;;;;;;;7367070;19;862;-66
2022/11/20 10:39:55;;;;;;;;;;;;;;;;;;7365374;19;827;-66
2022/11/20 10:42:23;;;;;;;;;;;;;;;;;;7365180;19;1271;-66
2022/11/20 10:45:03;;;;;;;;;;;;;;;;;;7365589;19;772;-67
2022/11/20 10:47:32;;;;;;;;;;;;;;;;;;7364308;19;787;-67
2022/11/20 10:50:00;;;;;;;;;;;;;;;;;;7366114;19;871;-67
2022/11/20 10:52:28;;;;;;;;;;;;;;;;;;7364119;19;1849;-67
2022/11/20 10:54:56;;;;;;;;;;;;;;;;;;7365169;19;867;-67
2022/11/20 10:57:24;;;;;;;;;;;;;;;;;;7368389;19;796;-68
2022/11/20 10:59:52;;;;;;;;;;;;;;;;;;7371673;19;831;-68
2022/11/20 11:02:21;;;;;;;;;;;;;;;;;;7369740;19;1353;-68
2022/11/20 11:04:49;;;;;;;;;;;;;;;;;;7372354;19;799;-67
2022/11/20 11:07:17;;;;;;;;;;;;;;;;;;7372231;19;796;-68
2022/11/20 11:09:45;;;;;;;;;;;;;;;;;;7371348;19;863;-68
2022/11/20 11:12:13;;;;;;;;;;;;;;;;;;7372640;19;1857;-67
2022/11/20 11:14:41;;;;;;;;;;;;;;;;;;7373923;19;809;-68
2022/11/20 11:17:09;;;;;;;;;;;;;;;;;;7373059;19;819;-68
2022/11/20 11:19:37;;;;;;;;;;;;;;;;;;7371005;19;923;-67
2022/11/20 11:22:06;;;;;;;;;;;;;;;;;;7372307;19;1262;-67
2022/11/20 11:24:34;;;;;;;;;;;;;;;;;;7372960;19;820;-67
2022/11/20 11:27:04;;;;;;;;;;;;;;;;;;7371970;19;847;-68
2022/11/20 11:29:32;;;;;;;;;;;;;;;;;;7372334;19;795;-67
2022/11/20 11:32:00;;;;;;;;;;;;;;;;;;7371636;19;1842;-67
2022/11/20 11:34:29;;;;;;;;;;;;;;;;;;7372056;19;862;-67
2022/11/20 11:36:57;;;;;;;;;;;;;;;;;;7371481;19;810;-68
2022/11/20 11:39:25;;;;;;;;;;;;;;;;;;7370832;19;819;-67
2022/11/20 11:41:53;;;;;;;;;;;;;;;;;;7370580;19;1366;-67
2022/11/20 11:47:02;;;;;;;;;;;;;;;;;;7369501;19;865;-67
2022/11/20 11:49:30;;;;;;;;;;;;;;;;;;7369560;19;842;-68
2022/11/20 11:51:58;;;;;;;;;;;;;;;;;;7370316;19;1857;-68
2022/11/20 11:54:26;;;;;;;;;;;;;;;;;;7371493;19;876;-68
2022/11/20 11:56:54;;;;;;;;;;;;;;;;;;7371225;19;826;-67
2022/11/20 11:59:22;;;;;;;;;;;;;;;;;;7369770;19;847;-68
2022/11/20 12:01:51;;;;;;;;;;;;;;;;;;7370602;19;1255;-68
2022/11/20 12:04:19;;;;;;;;;;;;;;;;;;7371228;19;863;-67
2022/11/20 12:06:47;;;;;;;;;;;;;;;;;;7370504;19;815;-68
2022/11/20 12:09:15;;;;;;;;;;;;;;;;;;7366952;19;818;-67
2022/11/20 12:11:43;;;;;;;;;;;;;;;;;;7369961;19;1834;-67
2022/11/20 12:14:11;;;;;;;;;;;;;;;;;;7368454;19;1259;-68
2022/11/20 12:16:39;;;;;;;;;;;;;;;;;;7369860;19;826;-67
2022/11/20 12:19:08;;;;;;;;;;;;;;;;;;7369981;19;769;-68
2022/11/20 12:21:36;;;;;;;;;;;;;;;;;;7370102;19;809;-68
2022/11/20 12:24:04;;;;;;;;;;;;;;;;;;7366563;19;1314;-68
2022/11/20 12:26:32;;;;;;;;;;;;;;;;;;7370301;19;843;-67
2022/11/20 12:29:00;;;;;;;;;;;;;;;;;;7366755;19;827;-67
2022/11/20 12:31:28;;;;;;;;;;;;;;;;;;7369220;19;830;-67
2022/11/20 12:33:56;;;;;;;;;;;;;;;;;;7366586;19;1841;-67
2022/11/20 12:36:25;;;;;;;;;;;;;;;;;;7370363;19;842;-67
2022/11/20 12:38:53;;;;;;;;;;;;;;;;;;7369011;19;882;-67
2022/11/20 12:45:09;;;;;;;;;;;;;;;;;;7369092;19;872;-67
2022/11/20 12:46:50;;;;;;;;;;;;;;;;;;7369404;19;977;-68
2022/11/20 12:49:18;;;;;;;;;;;;;;;;;;7368879;19;810;-67
2022/11/20 12:51:46;;;;;;;;;;;;;;;;;;7369362;19;803;-67
2022/11/20 12:54:14;;;;;;;;;;;;;;;;;;7365091;19;1849;-67
2022/11/20 12:56:42;;;;;;;;;;;;;;;;;;7369350;19;755;-66
2022/11/20 12:59:10;;;;;;;;;;;;;;;;;;7368391;19;835;-67
2022/11/20 13:01:47;;;;;;;;;;;;;;;;;;7368176;19;864;-66
2022/11/20 13:04:15;;;;;;;;;;;;;;;;;;7369152;19;783;-66
2022/11/20 13:06:43;;;;;;;;;;;;;;;;;;7368707;19;902;-66
2022/11/20 13:09:12;;;;;;;;;;;;;;;;;;7368421;19;769;-66
2022/11/20 13:11:41;;;;;;;;;;;;;;;;;;7369632;19;886;-66
2022/11/20 13:14:09;;;;;;;;;;;;;;;;;;7366323;19;1861;-66
2022/11/20 13:16:37;;;;;;;;;;;;;;;;;;7369038;19;871;-67
2022/11/20 13:19:05;;;;;;;;;;;;;;;;;;7367554;19;892;-66
2022/11/20 13:21:33;;;;;;;;;;;;;;;;;;7367851;19;800;-67
2022/11/20 13:24:01;;;;;;;;;;;;;;;;;;7372424;19;1330;-67
2022/11/20 13:26:29;;;;;;;;;;;;;;;;;;7375634;19;864;-67
2022/11/20 13:28:57;;;;;;;;;;;;;;;;;;7373978;19;871;-67
2022/11/20 13:31:26;;;;;;;;;;;;;;;;;;7375667;19;787;-67
2022/11/20 13:33:54;;;;;;;;;;;;;;;;;;7371953;19;1823;-66
2022/11/20 13:36:22;;;;;;;;;;;;;;;;;;7371537;19;798;-67
2022/11/20 13:38:50;;;;;;;;;;;;;;;;;;7370340;19;761;-66
2022/11/20 13:41:31;;;;;;;;;;;;;;;;;;7370389;19;767;-66
2022/11/20 13:44:00;;;;;;;;;;;;;;;;;;7366741;19;1394;-67
2022/11/20 13:46:28;;;;;;;;;;;;;;;;;;7368008;19;826;-67
2022/11/20 13:48:56;;;;;;;;;;;;;;;;;;7366139;19;837;-67
2022/11/20 13:51:24;;;;;;;;;;;;;;;;;;7369449;19;930;-67
2022/11/20 13:53:53;;;;;;;;;;;;;;;;;;7365992;19;1853;-66
2022/11/20 13:56:21;;;;;;;;;;;;;;;;;;7369167;19;861;-67
2022/11/20 13:58:49;;;;;;;;;;;;;;;;;;7367680;19;934;-67
2022/11/20 14:01:17;;;;;;;;;;;;;;;;;;7368144;19;850;-67
2022/11/20 14:03:45;;;;;;;;;;;;;;;;;;7365504;19;1271;-67
2022/11/20 14:06:13;;;;;;;;;;;;;;;;;;7367717;19;862;-67
2022/11/20 14:08:41;;;;;;;;;;;;;;;;;;7366267;19;838;-67
2022/11/20 14:11:10;;;;;;;;;;;;;;;;;;7367517;19;854;-68
2022/11/20 14:13:38;;;;;;;;;;;;;;;;;;7362897;19;1841;-68
2022/11/20 14:16:06;;;;;;;;;;;;;;;;;;7367695;19;851;-68
2022/11/20 14:18:34;;;;;;;;;;;;;;;;;;7366629;19;833;-67
2022/11/20 14:21:03;;;;;;;;;;;;;;;;;;7367268;19;795;-68
2022/11/20 14:23:31;;;;;;;;;;;;;;;;;;7365543;19;1345;-67
2022/11/20 14:25:59;;;;;;;;;;;;;;;;;;7366559;19;874;-67
2022/11/20 14:28:28;;;;;;;;;;;;;;;;;;7366585;19;816;-67
2022/11/20 14:30:56;;;;;;;;;;;;;;;;;;7365209;19;914;-67
2022/11/20 14:33:25;;;;;;;;;;;;;;;;;;7362955;19;1857;-67
2022/11/20 14:35:53;;;;;;;;;;;;;;;;;;7366978;19;874;-68
2022/11/20 14:38:22;;;;;;;;;;;;;;;;;;7366568;19;815;-68
2022/11/20 14:40:50;;;;;;;;;;;;;;;;;;7367493;19;892;-67
2022/11/20 14:43:18;;;;;;;;;;;;;;;;;;7365332;19;1337;-67
2022/11/20 14:45:46;;;;;;;;;;;;;;;;;;7366337;19;835;-67
2022/11/20 14:48:14;;;;;;;;;;;;;;;;;;7365375;19;823;-67
2022/11/20 14:50:42;;;;;;;;;;;;;;;;;;7364645;19;774;-67
2022/11/20 14:53:10;;;;;;;;;;;;;;;;;;7364432;19;1850;-67
2022/11/20 14:55:39;;;;;;;;;;;;;;;;;;7365583;19;822;-68
2022/11/20 14:58:07;;;;;;;;;;;;;;;;;;7365609;19;846;-68
2022/11/20 15:00:36;;;;;;;;;;;;;;;;;;7365937;19;826;-68
2022/11/20 15:03:05;;;;;;;;;;;;;;;;;;7363780;19;1326;-68
2022/11/20 15:05:33;;;;;;;;;;;;;;;;;;7365347;19;831;-67
2022/11/20 15:08:01;;;;;;;;;;;;;;;;;;7364715;19;810;-68
2022/11/20 15:10:29;;;;;;;;;;;;;;;;;;7363889;19;815;-68
2022/11/20 15:12:57;;;;;;;;;;;;;;;;;;7363074;19;1855;-67
2022/11/20 15:15:25;;;;;;;;;;;;;;;;;;7364390;19;866;-68
2022/11/20 15:17:54;;;;;;;;;;;;;;;;;;7364331;19;791;-69
2022/11/20 15:20:22;;;;;;;;;;;;;;;;;;7364679;19;802;-68
2022/11/20 15:22:50;;;;;;;;;;;;;;;;;;7363200;19;1352;-68
2022/11/20 15:25:18;;;;;;;;;;;;;;;;;;7364231;19;826;-68
2022/11/20 15:27:46;;;;;;;;;;;;;;;;;;7363836;19;827;-68
2022/11/20 15:30:15;;;;;;;;;;;;;;;;;;7362676;19;858;-67
2022/11/20 15:32:43;;;;;;;;;;;;;;;;;;7363568;19;1848;-67
2022/11/20 15:35:11;;;;;;;;;;;;;;;;;;7364178;19;818;-66
2022/11/20 15:37:39;;;;;;;;;;;;;;;;;;7363154;19;867;-66
2022/11/20 15:40:07;;;;;;;;;;;;;;;;;;7364376;19;811;-67
2022/11/20 15:42:35;;;;;;;;;;;;;;;;;;7362649;19;1298;-67
2022/11/20 15:45:03;;;;;;;;;;;;;;;;;;7370733;19;772;-68
2022/11/20 15:47:31;;;;;;;;;;;;;;;;;;7370911;19;799;-67
2022/11/20 15:50:00;;;;;;;;;;;;;;;;;;7370701;19;795;-67
2022/11/20 15:52:28;;;;;;;;;;;;;;;;;;7370593;19;1295;-68
2022/11/20 15:54:56;;;;;;;;;;;;;;;;;;7368239;19;1862;-67
2022/11/20 15:57:25;;;;;;;;;;;;;;;;;;7370258;19;875;-68
2022/11/20 15:59:53;;;;;;;;;;;;;;;;;;7369652;19;810;-69
2022/11/20 16:02:21;;;;;;;;;;;;;;;;;;7370352;19;1287;-69
2022/11/20 16:04:49;;;;;;;;;;;;;;;;;;7370504;19;804;-68
2022/11/20 16:07:17;;;;;;;;;;;;;;;;;;7369539;19;869;-68
2022/11/20 16:09:46;;;;;;;;;;;;;;;;;;7368568;19;817;-68
2022/11/20 16:15:44;;;;;;;;;;;;;;;;;;7369215;19;1322;-69
2022/11/20 16:17:47;;;;;;;;;;;;;;;;;;7368651;19;1028;-70
2022/11/20 16:20:15;;;;;;;;;;;;;;;;;;7369417;19;819;-69
2022/11/20 16:22:43;;;;;;;;;;;;;;;;;;7368275;19;1262;-69
2022/11/20 16:25:11;;;;;;;;;;;;;;;;;;7368728;19;764;-69
2022/11/20 16:27:39;;;;;;;;;;;;;;;;;;7369110;19;883;-69
2022/11/20 16:30:07;;;;;;;;;;;;;;;;;;7368824;19;804;-70
2022/11/20 16:32:36;;;;;;;;;;;;;;;;;;7368355;19;1354;-69
2022/11/20 16:35:04;;;;;;;;;;;;;;;;;;7367696;19;1876;-70
2022/11/20 16:37:32;;;;;;;;;;;;;;;;;;7369343;19;848;-70
2022/11/20 16:40:00;;;;;;;;;;;;;;;;;;7368824;19;890;-70
2022/11/20 16:42:28;;;;;;;;;;;;;;;;;;7369087;19;1275;-70
2022/11/20 16:44:56;;;;;;;;;;;;;;;;;;7369954;19;859;-70
2022/11/20 16:47:24;;;;;;;;;;;;;;;;;;7367793;19;833;-69
2022/11/20 16:49:53;;;;;;;;;;;;;;;;;;7368574;19;791;-70
2022/11/20 16:52:21;;;;;;;;;;;;;;;;;;7366530;19;1663;-71
2022/11/20 16:54:49;;;;;;;;;;;;;;;;;;7364809;19;1845;-70
2022/11/20 16:57:17;;;;;;;;;;;;;;;;;;7368699;19;808;-70
2022/11/20 16:59:45;;;;;;;;;;;;;;;;;;7368180;19;795;-70
2022/11/20 17:02:14;;;;;;;;;;;;;;;;;;7368977;19;1294;-70
2022/11/20 17:04:42;;;;;;;;;;;;;;;;;;7368557;19;800;-70
2022/11/20 17:07:11;;;;;;;;;;;;;;;;;;7367080;19;836;-70
2022/11/20 17:09:39;;;;;;;;;;;;;;;;;;7367808;19;966;-70
2022/11/20 17:12:07;;;;;;;;;;;;;;;;;;7367757;19;1286;-70
2022/11/20 17:14:35;;;;;;;;;;;;;;;;;;7365731;19;1853;-70
2022/11/20 17:17:03;;;;;;;;;;;;;;;;;;7368182;19;898;-68
2022/11/20 17:19:32;;;;;;;;;;;;;;;;;;7367143;19;787;-68
2022/11/20 17:22:00;;;;;;;;;;;;;;;;;;7367196;19;1365;-68
2022/11/20 17:24:28;;;;;;;;;;;;;;;;;;7367697;19;886;-68
2022/11/20 17:26:56;;;;;;;;;;;;;;;;;;7368371;19;807;-68
2022/11/20 17:29:24;;;;;;;;;;;;;;;;;;7367229;19;818;-68
2022/11/20 17:31:52;;;;;;;;;;;;;;;;;;7367966;19;1295;-69
2022/11/20 17:34:21;;;;;;;;;;;;;;;;;;7366029;19;1842;-69
2022/11/20 17:36:49;;;;;;;;;;;;;;;;;;7367110;19;823;-69
2022/11/20 17:39:18;;;;;;;;;;;;;;;;;;7366366;19;770;-69
2022/11/20 17:42:25;;;;;;;;;;;;;;;;;;7367432;19;823;-69
2022/11/20 17:44:34;;;;;;;;;;;;;;;;;;7366456;19;1087;-69
2022/11/20 17:47:02;;;;;;;;;;;;;;;;;;7364193;19;902;-69